logo
App data

Hyposphere

Hyposphere is not simply a classic "marble" platformer, it may also be the most beautiful, thanks to the power of the Unreal Engine 4, as well as the most difficult.
Store | Hub | SteamDB | Site
Developer: Atum Software Publisher: Sometimes You
Genre: Casual, Indie
Languages: English
Tags: Indie (41), Casual (22), Platformer (7)
Category: Single-player, Steam Achievements, Steam Trading Cards, Partial Controller Support
Release date: May 5, 2016
Price: $2.99
Old userscore: 54% Owners: 200,000 .. 500,000
Followers: 398
Peak concurrent players yesterday: 1
Playtime total: 05:41 (average) 05:47 (median)

Steam Spy is still in beta, so expect major bugs.

Owners data:

Access restricted.

This feature is only available to users with special access rights. Sorry.

If you want to proceed, you need to register or log in first and then back Steam Spy on Patreon. Look for Indie or Pro pledge.

Don't forget to use the same email as on Steam Spy!

Audience in 2 weeks:

Access restricted.

This feature is only available to users with special access rights. Sorry.

If you want to proceed, you need to register or log in first and then back Steam Spy on Patreon. Look for Indie or Pro pledge.

Don't forget to use the same email as on Steam Spy!

Peak daily concurrent players:

CCU data courtesy of SteamDB. Used with permission.

Hourly concurrent players:

Followers over time

Access restricted.

This feature is only available to users with special access rights. Sorry.

If you want to proceed, you need to register or log in first and then back Steam Spy on Patreon. Look for Indie or Pro pledge.

Don't forget to use the same email as on Steam Spy!

Views for top 50 videos on YouTube for this game:

Games similar to this one:

# Game Release date
Price
Score rank
(Userscore / Metascore)
Owners
Players
Playtime (Median)
1 The Jackbox Party Pack Nov 26, 2014 $24.99N/A (N/A)200,000 .. 500,0000%00:00 (00:00)
2 Racecraft Mar 4, 2016 FreeN/A (N/A)20,000 .. 50,0000%00:00 (00:00)
3 Steam and Metal Feb 9, 2015 $4.99N/A (N/A)0 .. 20,0000%00:00 (00:00)
4 Pester Jan 25, 2013 $0.99N/A (N/A)100,000 .. 200,0000%00:00 (00:00)
5 Marble Duel Nov 12, 2015 $14.99N/A (N/A)50,000 .. 100,0000%00:00 (00:00)
6 Drizzlepath Mar 12, 2015 $1.99N/A (N/A)20,000 .. 50,0000%00:00 (00:00)
7 12 Labours of Hercules Mar 23, 2015 $2.99N/A (N/A)200,000 .. 500,0000%00:00 (00:00)
8 The Reject Demon: Toko Chapter 0 — Prelude May 9, 2015 $4.99N/A (N/A)20,000 .. 50,0000%00:00 (00:00)
9 Bob Was Hungry Aug 19, 2015 $9.99N/A (N/A)50,000 .. 100,00016.67%00:10 (00:05)
10 Cursed Sight Aug 3, 2015 $4.99N/A (N/A)0 .. 20,0000%00:00 (00:00)
11 Pixel Puzzles 2: Birds Feb 20, 2015 $9.99N/A (N/A)200,000 .. 500,0000%00:00 (00:00)
12 Egg Returns Home May 5, 2015 $0.99N/A (N/A)20,000 .. 50,0000%00:00 (00:00)
13 Stay Alight Mar 2, 2015 $3.99N/A (N/A)50,000 .. 100,0000%00:00 (00:00)
14 SinaRun Oct 26, 2015 $2.99N/A (N/A)20,000 .. 50,0000%00:00 (00:00)
15 Astro Emporia Feb 2, 2015 $0.99N/A (N/A)20,000 .. 50,0000%00:00 (00:00)
16 Sinister City Oct 18, 2014 $0.99N/A (N/A)100,000 .. 200,0000%00:00 (00:00)
17 Streets of Chaos Jan 23, 2015 N/AN/A (N/A)100,000 .. 200,0000%00:00 (00:00)
18 Space Drifters 2D Mar 28, 2016 $0.99N/A (N/A)20,000 .. 50,0000%00:00 (00:00)
19 Robot vs Birds Zombies Jun 1, 2013 $0.99N/A (N/A)200,000 .. 500,0000%00:00 (00:00)
20 Fate Tectonics Sep 9, 2015 $4.99N/A (N/A)20,000 .. 50,0000%00:00 (00:00)
21 Collisions Jul 28, 2015 $3.99N/A (N/A)20,000 .. 50,0000%00:00 (00:00)
22 Koala Kids Jun 22, 2015 $1.99N/A (N/A)20,000 .. 50,0000%00:00 (00:00)
23 The Deletion Jul 30, 2015 $1.99N/A (N/A)20,000 .. 50,0000%00:00 (00:00)
24 Star Chronicles: Delta Quadrant Jul 7, 2015 $0.99N/A (N/A)200,000 .. 500,0000%00:00 (00:00)
25 Labyrinth Simulator Sep 21, 2015 $4.99N/A (N/A)0 .. 20,0000%00:00 (00:00)
26 Job the Leprechaun Jul 31, 2015 $2.99N/A (N/A)20,000 .. 50,0000%00:00 (00:00)
27 Tennis in the Face Nov 18, 2015 $4.99N/A (N/A)0 .. 20,0000%00:00 (00:00)
28 Wanda - A Beautiful Apocalypse Jun 3, 2016 $1.99N/A (N/A)100,000 .. 200,0000%00:00 (00:00)
29 Backgammon Blitz Nov 12, 2015 $3.99N/A (N/A)20,000 .. 50,0000%00:00 (00:00)
30 Asphyxia Aug 4, 2015 $5.99N/A (N/A)20,000 .. 50,0000%00:00 (00:00)
31 Power of Love Jul 21, 2015 $0.49N/A (N/A)20,000 .. 50,0000%00:00 (00:00)
32 Alpha Runner Sep 2, 2015 $0.99N/A (N/A)100,000 .. 200,0000%00:00 (00:00)
33 Way of Gold and Steel Aug 17, 2015 $8.99N/A (N/A)20,000 .. 50,0000%00:00 (00:00)
34 In Between Aug 21, 2015 $11.99N/A (N/A/68%)50,000 .. 100,0000%00:00 (00:00)
35 Without Within 2 Nov 9, 2015 $4.99N/A (N/A)0 .. 20,0000%00:00 (00:00)
36 Rescue Team 5 Sep 30, 2015 $3.99N/A (N/A)0 .. 20,0000%00:00 (00:00)
37 Anode Oct 5, 2015 $3.99N/A (N/A)20,000 .. 50,0000%00:00 (00:00)
38 Air Missions: HIND Mar 21, 2016 $16.99N/A (N/A)0 .. 20,0000%00:00 (00:00)
39 Lift It Jan 20, 2017 $4.99N/A (N/A)50,000 .. 100,0000%00:00 (00:00)
40 Goodnight Butcher Dec 18, 2015 $1.99N/A (N/A)20,000 .. 50,0000%00:00 (00:00)
41 Star Sky - ブルームーン Oct 23, 2015 $3.99N/A (N/A)0 .. 20,0000%00:00 (00:00)
42 Broken Dreams Feb 19, 2016 $1.99N/A (N/A)100,000 .. 200,0000%00:00 (00:00)
43 The Last NightMary - A Lenda do Cabeça de Cuia Nov 2, 2015 $0.49N/A (N/A)50,000 .. 100,0000%00:00 (00:00)
44 Sophie's Curse Mar 16, 2016 $4.99N/A (N/A)50,000 .. 100,0000%00:00 (00:00)
45 Swapperoo Dec 18, 2015 $4.99N/A (N/A)0 .. 20,0000%00:00 (00:00)
46 Night Blights Apr 15, 2016 $6.99N/A (N/A)0 .. 20,0000%00:00 (00:00)
47 Loot Hound Nov 17, 2015 $2.99N/A (N/A)0 .. 20,0000%00:00 (00:00)
48 12 Labours of Hercules IV: Mother Nature (Platinum Edition) Dec 25, 2015 $2.99N/A (N/A)20,000 .. 50,0000%00:00 (00:00)
49 Cyber Team Manager Jan 8, 2016 $4.99N/A (N/A)0 .. 20,0000%00:00 (00:00)
50 Gridworld Dec 29, 2015 $0.99N/A (N/A)0 .. 20,0000%00:00 (00:00)
51 BAD END Nov 25, 2015 $2.99N/A (N/A)0 .. 20,00050%01:17 (00:38)
52 Mind Games Mar 4, 2016 $2.99N/A (N/A)20,000 .. 50,0000%00:00 (00:00)
53 Autumn Sep 23, 2014 $2.99N/A (N/A)100,000 .. 200,0000%00:00 (00:00)
54 Hustle Cat Mar 16, 2016 $19.99N/A (N/A)50,000 .. 100,0000%00:00 (00:00)
55 Magma Tsunami Jun 1, 2016 $0.99N/A (N/A)200,000 .. 500,0000%00:00 (00:00)
56 Burst Mar 14, 2016 N/AN/A (N/A)50,000 .. 100,0000%00:00 (00:00)
57 Frog Climbers Oct 6, 2016 $6.99N/A (N/A)20,000 .. 50,0000%00:00 (00:00)
58 Forgotten, Not Lost - A Kinetic Novel Apr 2, 2016 $1.99N/A (N/A)20,000 .. 50,0000%00:00 (00:00)
59 Color Syndrome Jun 20, 2016 $0.99N/A (N/A)50,000 .. 100,0000%00:00 (00:00)
60 Melting Hearts: Our Love Will Grow 2 Apr 29, 2016 N/AN/A (N/A)20,000 .. 50,0000%00:00 (00:00)
61 Hide and Secret Treasure of the Ages Mar 15, 2007 $2.99N/A (N/A)20,000 .. 50,0000%00:00 (00:00)
62 Love in the Glen Jun 9, 2016 $5.99N/A (N/A)20,000 .. 50,0000%00:00 (00:00)
63 12 Labours of Hercules V: Kids of Hellas (Platinum Edition) Jun 17, 2016 $2.99N/A (N/A)20,000 .. 50,0000%00:00 (00:00)
64 One Last Chance Apr 7, 2016 $3.99N/A (N/A)20,000 .. 50,0000%00:00 (00:00)
65 XCavalypse Jun 6, 2016 $5.99N/A (N/A)0 .. 20,0000%00:00 (00:00)
66 Reptilian Rebellion Aug 8, 2016 $2.99N/A (N/A)20,000 .. 50,0000%00:00 (00:00)
67 Caravanserail Feb 26, 2016 $2.99N/A (N/A)0 .. 20,0000%00:00 (00:00)
68 King's Guard TD Jun 8, 2016 $2.99N/A (N/A)100,000 .. 200,0000%00:00 (00:00)
69 Rage Runner May 16, 2014 $4.99N/A (N/A)0 .. 20,0000%00:00 (00:00)
70 Highborn Feb 19, 2013 $1.99N/A (N/A)0 .. 20,0000%00:00 (00:00)
71 Cyto Jul 10, 2014 $3.99N/A (N/A)20,000 .. 50,0000%00:00 (00:00)
72 Oozi: Earth Adventure Dec 5, 2013 $4.99N/A (N/A/66%)50,000 .. 100,0000%00:00 (00:00)
73 Cute Things Dying Violently Sep 2, 2015 $2.99N/A (N/A)0 .. 20,0000%00:00 (00:00)
74 Dead Man's Draw Feb 6, 2014 $6.99N/A (N/A)20,000 .. 50,0000%00:00 (00:00)
75 Wildlife Park 2 - Dino World Mar 30, 2012 $3.99N/A (N/A)20,000 .. 50,0000%00:00 (00:00)
76 Girls Like Robots Feb 14, 2014 $6.99N/A (N/A)100,000 .. 200,0000%00:00 (00:00)
77 Bloop Reloaded Feb 6, 2015 FreeN/A (N/A)200,000 .. 500,0000%00:00 (00:00)
78 Grapple Mar 9, 2015 $6.99N/A (N/A)20,000 .. 50,0000%00:00 (00:00)
79 Quantum Rush Champions Dec 4, 2014 $2.99N/A (N/A)20,000 .. 50,0000%00:00 (00:00)
80 Paranormal State: Poison Spring Nov 26, 2013 $9.99N/A (N/A)50,000 .. 100,0000%00:00 (00:00)
81 Laserlife Sep 22, 2015 $9.99N/A (N/A)20,000 .. 50,0000%00:00 (00:00)
82 Tribloos 2 Jan 30, 2014 $4.99N/A (N/A)50,000 .. 100,0000%00:00 (00:00)
83 Governor of Poker 2 - Premium Edition Oct 11, 2010 $14.99N/A (N/A)20,000 .. 50,0000%00:00 (00:00)
84 On Rusty Trails Jun 13, 2016 $12.99N/A (N/A/77%)20,000 .. 50,0000%00:00 (00:00)
85 Luxor Evolved Mar 1, 2012 $9.99N/A (N/A)20,000 .. 50,0000%00:00 (00:00)
86 Clock Simulator Jul 20, 2016 $0.99N/A (N/A)20,000 .. 50,0000%00:00 (00:00)
87 Neon Prism Nov 18, 2016 $4.99N/A (N/A)50,000 .. 100,0000%00:00 (00:00)
88 Optika Aug 26, 2016 $4.99N/A (N/A)20,000 .. 50,0000%00:00 (00:00)
89 iREC Jan 16, 2017 FreeN/A (N/A)50,000 .. 100,0000%00:00 (00:00)
90 Won't You Be My Laser? Sep 2, 2016 $0.99N/A (N/A)0 .. 20,0000%00:00 (00:00)
91 Winexy Jan 13, 2017 $0.99N/A (N/A)50,000 .. 100,0000%00:00 (00:00)
92 Football Blitz Jan 4, 2017 N/AN/A (N/A)0 .. 20,0000%00:00 (00:00)
93 Ninja Stealth 2 Jan 30, 2017 $0.99N/A (N/A)20,000 .. 50,0000%00:00 (00:00)
94 Turbo Pug 3D Sep 20, 2016 $1.99N/A (N/A)200,000 .. 500,0000%00:00 (00:00)
95 Dungeon Painter Studio Feb 26, 2017 $14.99N/A (N/A)50,000 .. 100,00050%00:42 (00:21)
96 Archimedes Oct 6, 2016 $2.99N/A (N/A)20,000 .. 50,0000%00:00 (00:00)
97 Darkarta: A Broken Heart's Quest Collector's Edition Mar 8, 2017 $9.99N/A (N/A)50,000 .. 100,0000%00:00 (00:00)
98 Kombine Oct 14, 2016 $0.99N/A (N/A)20,000 .. 50,0000%00:00 (00:00)
99 Beeftacular Aug 26, 2016 $2.99N/A (N/A)0 .. 20,0000%00:00 (00:00)
100 GO AWAY, THERE'S KUMIS OVER THERE! Oct 28, 2016 $0.99N/A (N/A)50,000 .. 100,0000%00:00 (00:00)
101 ConflictCraft Dec 8, 2016 $2.99N/A (N/A)20,000 .. 50,0000%00:00 (00:00)
102 The Survey Oct 27, 2016 $0.99N/A (N/A)20,000 .. 50,0000%00:00 (00:00)

Tags over time:

Access restricted.

This feature is only available to users with special access rights. Sorry.

If you want to proceed, you need to register or log in first and then back Steam Spy on Patreon. Look for Indie or Pro pledge.

Don't forget to use the same email as on Steam Spy!

Owners of this game also own:

Access restricted.

This feature is only available to users with special access rights. Sorry.

If you want to proceed, you need to register or log in first and then back Steam Spy on Patreon. Look for Indie or Pro pledge.

Don't forget to use the same email as on Steam Spy!

Playtime distribution:

Access restricted.

This feature is only available to users with special access rights. Sorry.

If you want to proceed, you need to register or log in first and then back Steam Spy on Patreon. Look for Indie or Pro pledge.

Don't forget to use the same email as on Steam Spy!

Playtime (2 weeks):

Access restricted.

This feature is only available to users with special access rights. Sorry.

If you want to proceed, you need to register or log in first and then back Steam Spy on Patreon. Look for Indie or Pro pledge.

Don't forget to use the same email as on Steam Spy!

User reviews:

Login required.

Please register or log in to see this information.